Time,TemperatureF,DewpointF,PressureIn,WindDirection,WindDirectionDegrees,WindSpeedMPH,WindSpeedGustMPH,Humidity,HourlyPrecipIn,Conditions,Clouds,dailyrainin,SoftwareType,DateUTC
2013-03-10 00:01:00,35.0,33.0,29.81,ESE,115,0.0,1.0,92,0.00,,,0.07,,2013-03-10 06:01:00,
2013-03-10 00:11:00,35.0,33.0,29.80,SSW,206,0.0,1.0,93,0.01,,,0.08,,2013-03-10 06:11:00,
2013-03-10 00:22:00,35.0,33.0,29.80,SSW,206,0.0,1.0,93,0.01,,,0.08,,2013-03-10 06:22:00,
2013-03-10 00:32:00,35.0,33.0,29.80,ENE,78,0.0,2.0,93,0.03,,,0.10,,2013-03-10 06:32:00,
2013-03-10 00:42:00,35.0,33.0,29.80,ENE,77,0.0,0.0,94,0.03,,,0.10,,2013-03-10 06:42:00,
2013-03-10 00:52:00,35.0,33.0,29.80,ENE,77,0.0,0.0,94,0.03,,,0.10,,2013-03-10 06:52:00,
2013-03-10 01:01:00,35.0,34.0,29.79,East,79,0.0,0.0,95,0.03,,,0.10,,2013-03-10 07:01:00,
2013-03-10 01:11:00,35.0,34.0,29.80,East,98,0.0,1.0,95,0.04,,,0.12,,2013-03-10 07:11:00,
2013-03-10 01:21:00,35.0,34.0,29.80,East,98,0.0,1.0,95,0.04,,,0.12,,2013-03-10 07:21:00,
2013-03-10 01:31:00,35.0,34.0,29.80,East,98,0.0,0.0,95,0.02,,,0.12,,2013-03-10 07:31:00,
2013-03-10 01:42:00,35.0,34.0,29.79,East,98,0.0,0.0,96,0.03,,,0.13,,2013-03-10 07:42:00,
2013-03-10 01:52:00,35.0,34.0,29.79,East,98,0.0,0.0,96,0.03,,,0.13,,2013-03-10 07:52:00,
2013-03-10 03:01:00,35.0,34.0,29.79,East,98,0.0,1.0,96,0.03,,,0.13,,2013-03-10 08:01:00,
2013-03-10 03:11:00,35.0,34.0,29.78,East,98,0.0,0.0,96,0.01,,,0.13,,2013-03-10 08:11:00,
2013-03-10 03:21:00,35.0,34.0,29.78,East,98,0.0,0.0,96,0.01,,,0.13,,2013-03-10 08:21:00,
2013-03-10 03:31:00,36.0,35.0,29.78,SSE,160,0.0,1.0,97,0.03,,,0.15,,2013-03-10 08:31:00,
2013-03-10 03:42:00,37.0,36.0,29.77,SSW,200,0.0,2.0,96,0.02,,,0.15,,2013-03-10 08:42:00,
2013-03-10 03:52:00,37.0,36.0,29.77,SSW,200,0.0,2.0,96,0.02,,,0.15,,2013-03-10 08:52:00,
2013-03-10 04:01:00,37.0,36.0,29.76,South,190,0.0,2.0,95,0.03,,,0.16,,2013-03-10 09:01:00,
2013-03-10 04:11:00,38.0,37.0,29.76,SW,229,2.0,3.0,95,0.04,,,0.17,,2013-03-10 09:11:00,
2013-03-10 04:21:00,38.0,37.0,29.76,SW,229,2.0,3.0,95,0.04,,,0.17,,2013-03-10 09:21:00,
2013-03-10 04:31:00,38.0,36.0,29.74,SE,141,0.0,3.0,94,0.03,,,0.18,,2013-03-10 09:31:00,
2013-03-10 04:41:00,38.0,37.0,29.74,SE,141,0.0,1.0,95,0.07,,,0.23,,2013-03-10 09:41:00,
2013-03-10 04:52:00,38.0,37.0,29.74,SE,141,0.0,1.0,95,0.07,,,0.23,,2013-03-10 09:52:00,
2013-03-10 05:01:00,38.0,37.0,29.74,SE,139,1.0,2.0,96,0.09,,,0.25,,2013-03-10 10:01:00,
2013-03-10 05:11:00,38.0,37.0,29.74,SE,139,1.0,2.0,96,0.09,,,0.25,,2013-03-10 10:11:00,
2013-03-10 05:21:00,39.0,38.0,29.75,SSE,149,2.0,4.0,96,0.09,,,0.26,,2013-03-10 10:21:00,
2013-03-10 05:32:00,39.0,38.0,29.74,SSE,156,1.0,2.0,97,0.08,,,0.26,,2013-03-10 10:32:00,
2013-03-10 05:41:00,39.0,38.0,29.74,WSW,250,0.0,2.0,97,0.03,,,0.26,,2013-03-10 10:41:00,
2013-03-10 05:52:00,39.0,38.0,29.74,WSW,250,0.0,2.0,97,0.03,,,0.26,,2013-03-10 10:52:00,
2013-03-10 06:01:00,39.0,38.0,29.75,WSW,250,0.0,1.0,96,0.01,,,0.26,,2013-03-10 11:01:00,
2013-03-10 06:11:00,39.0,38.0,29.75,WSW,242,1.0,1.0,97,0.00,,,0.26,,2013-03-10 11:11:00,
2013-03-10 06:21:00,39.0,38.0,29.75,WSW,242,1.0,1.0,97,0.00,,,0.26,,2013-03-10 11:21:00,
2013-03-10 06:31:00,40.0,39.0,29.74,SSW,203,0.0,2.0,97,0.00,,,0.26,,2013-03-10 11:31:00,
2013-03-10 06:42:00,40.0,39.0,29.74,SSW,203,0.0,2.0,97,0.00,,,0.26,,2013-03-10 11:42:00,
2013-03-10 06:52:00,40.0,39.0,29.75,SSW,198,0.0,2.0,97,0.00,,,0.26,,2013-03-10 11:52:00,
2013-03-10 07:01:00,40.0,39.0,29.75,ESE,110,1.0,2.0,97,0.01,,,0.27,,2013-03-10 12:01:00,
2013-03-10 07:11:00,40.0,39.0,29.75,ESE,110,1.0,2.0,97,0.01,,,0.27,,2013-03-10 12:11:00,
2013-03-10 07:21:00,38.0,37.0,29.75,ENE,72,0.0,2.0,96,0.03,,,0.29,,2013-03-10 12:21:00,
2013-03-10 07:31:00,37.0,36.0,29.75,ENE,72,1.0,1.0,96,0.04,,,0.30,,2013-03-10 12:31:00,
2013-03-10 07:42:00,37.0,36.0,29.75,ENE,72,1.0,1.0,96,0.04,,,0.30,,2013-03-10 12:42:00,
2013-03-10 07:52:00,38.0,37.0,29.75,ESE,105,0.0,1.0,97,0.05,,,0.31,,2013-03-10 12:52:00,
2013-03-10 08:01:00,38.0,37.0,29.74,SE,135,0.0,2.0,98,0.05,,,0.32,,2013-03-10 13:01:00,
2013-03-10 08:11:00,38.0,37.0,29.74,SE,135,0.0,2.0,98,0.05,,,0.32,,2013-03-10 13:11:00,
2013-03-10 08:21:00,39.0,38.0,29.74,South,190,1.0,3.0,98,0.06,,,0.35,,2013-03-10 13:21:00,
2013-03-10 08:31:00,40.0,39.0,29.73,SE,136,0.0,3.0,98,0.05,,,0.35,,2013-03-10 13:31:00,
2013-03-10 08:41:00,40.0,39.0,29.73,SE,136,0.0,3.0,98,0.05,,,0.35,,2013-03-10 13:41:00,
2013-03-10 08:52:00,40.0,39.0,29.72,SE,127,2.0,4.0,98,0.05,,,0.36,,2013-03-10 13:52:00,
2013-03-10 09:01:00,40.0,39.0,29.75,WSW,239,2.0,5.0,98,0.04,,,0.36,,2013-03-10 14:01:00,
2013-03-10 09:11:00,40.0,39.0,29.75,WSW,239,2.0,5.0,98,0.04,,,0.36,,2013-03-10 14:11:00,
2013-03-10 09:21:00,41.0,40.0,29.77,SSE,162,3.0,7.0,98,0.03,,,0.38,,2013-03-10 14:21:00,
2013-03-10 09:32:00,41.0,40.0,29.77,SE,142,0.0,4.0,98,0.03,,,0.38,,2013-03-10 14:32:00,
2013-03-10 09:41:00,41.0,40.0,29.77,SE,142,0.0,4.0,98,0.03,,,0.38,,2013-03-10 14:41:00,
2013-03-10 09:52:00,41.0,40.0,29.77,SW,222,0.0,1.0,98,0.03,,,0.39,,2013-03-10 14:52:00,
2013-03-10 10:01:00,41.0,40.0,29.77,South,181,0.0,1.0,98,0.06,,,0.42,,2013-03-10 15:01:00,
2013-03-10 10:11:00,41.0,40.0,29.77,South,181,0.0,1.0,98,0.06,,,0.42,,2013-03-10 15:11:00,
2013-03-10 10:21:00,41.0,40.0,29.77,SSW,208,0.0,2.0,98,0.05,,,0.37,,2013-03-10 15:21:00,
2013-03-10 10:32:00,41.0,40.0,29.77,WSW,252,1.0,2.0,98,0.05,,,0.37,,2013-03-10 15:32:00,
2013-03-10 10:42:00,41.0,40.0,29.77,WSW,252,1.0,2.0,98,0.05,,,0.37,,2013-03-10 15:42:00,
2013-03-10 10:52:00,41.0,40.0,29.77,WSW,253,0.0,2.0,98,0.04,,,0.37,,2013-03-10 15:52:00,
2013-03-10 11:01:00,41.0,40.0,29.77,WSW,250,0.0,1.0,98,0.01,,,0.37,,2013-03-10 16:01:00,
2013-03-10 11:12:00,41.0,40.0,29.77,WSW,250,0.0,1.0,98,0.01,,,0.37,,2013-03-10 16:12:00,
2013-03-10 11:21:00,42.0,41.0,29.78,WSW,248,0.0,1.0,98,0.00,,,0.36,,2013-03-10 16:21:00,
2013-03-10 11:31:00,42.0,41.0,29.78,WSW,248,0.0,1.0,98,0.00,,,0.36,,2013-03-10 16:31:00,
2013-03-10 11:41:00,42.0,41.0,29.78,WSW,248,0.0,1.0,98,0.00,,,0.36,,2013-03-10 16:41:00,
2013-03-10 11:52:00,42.0,41.0,29.79,SW,229,1.0,1.0,98,0.00,,,0.36,,2013-03-10 16:52:00,
2013-03-10 12:01:00,42.0,41.0,29.78,SW,229,0.0,0.0,98,0.00,,,0.36,,2013-03-10 17:01:00,
2013-03-10 12:11:00,42.0,41.0,29.78,SW,229,0.0,0.0,98,0.00,,,0.36,,2013-03-10 17:11:00,
2013-03-10 12:21:00,42.0,41.0,29.78,SE,136,0.0,1.0,98,0.01,,,0.37,,2013-03-10 17:21:00,
2013-03-10 12:31:00,42.0,41.0,29.77,SE,137,0.0,1.0,98,0.01,,,0.37,,2013-03-10 17:31:00,
2013-03-10 12:41:00,42.0,41.0,29.77,SE,137,0.0,1.0,98,0.01,,,0.37,,2013-03-10 17:41:00,
2013-03-10 12:51:00,43.0,42.0,29.75,SE,136,0.0,1.0,98,0.01,,,0.37,,2013-03-10 17:51:00,
2013-03-10 13:01:00,43.0,42.0,29.75,ENE,75,1.0,2.0,98,0.01,,,0.37,,2013-03-10 18:01:00,
2013-03-10 13:11:00,43.0,42.0,29.76,ENE,75,0.0,2.0,98,0.00,,,0.37,,2013-03-10 18:11:00,
2013-03-10 13:21:00,43.0,42.0,29.76,ENE,75,0.0,2.0,98,0.00,,,0.37,,2013-03-10 18:21:00,
2013-03-10 13:31:00,42.0,41.0,29.76,East,79,0.0,2.0,98,0.00,,,0.37,,2013-03-10 18:31:00,
2013-03-10 13:41:00,42.0,41.0,29.76,East,79,0.0,2.0,98,0.00,,,0.37,,2013-03-10 18:41:00,
2013-03-10 13:52:00,43.0,42.0,29.75,NNE,12,1.0,3.0,98,0.00,,,0.37,,2013-03-10 18:52:00,
2013-03-10 14:01:00,42.0,41.0,29.78,ESE,121,3.0,4.0,98,0.01,,,0.38,,2013-03-10 19:01:00,
2013-03-10 14:11:00,42.0,41.0,29.78,ESE,121,3.0,4.0,98,0.01,,,0.38,,2013-03-10 19:11:00,
2013-03-10 14:21:00,42.0,41.0,29.77,ENE,72,2.0,3.0,98,0.04,,,0.41,,2013-03-10 19:21:00,
2013-03-10 14:31:00,42.0,41.0,29.76,East,89,0.0,2.0,98,0.05,,,0.42,,2013-03-10 19:31:00,
2013-03-10 14:42:00,42.0,41.0,29.76,East,89,0.0,2.0,98,0.05,,,0.42,,2013-03-10 19:42:00,
2013-03-10 14:53:00,42.0,41.0,29.75,ENE,66,2.0,4.0,98,0.08,,,0.45,,2013-03-10 19:53:00,
2013-03-10 15:02:00,42.0,41.0,29.73,ESE,102,3.0,4.0,98,0.08,,,0.46,,2013-03-10 20:02:00,
2013-03-10 15:12:00,42.0,41.0,29.73,ESE,102,3.0,4.0,98,0.08,,,0.46,,2013-03-10 20:12:00,
2013-03-10 15:22:00,41.0,40.0,29.72,East,84,1.0,4.0,98,0.07,,,0.48,,2013-03-10 20:22:00,
2013-03-10 15:32:00,41.0,40.0,29.73,East,93,2.0,3.0,98,0.06,,,0.48,,2013-03-10 20:32:00,
2013-03-10 15:42:00,41.0,40.0,29.73,East,93,2.0,3.0,98,0.06,,,0.48,,2013-03-10 20:42:00,
2013-03-10 15:53:00,40.0,39.0,29.72,ENE,65,2.0,3.0,98,0.03,,,0.48,,2013-03-10 20:53:00,
2013-03-10 16:02:00,40.0,39.0,29.72,ENE,77,2.0,3.0,98,0.02,,,0.49,,2013-03-10 21:02:00,
2013-03-10 16:12:00,40.0,39.0,29.72,ENE,77,2.0,3.0,98,0.02,,,0.49,,2013-03-10 21:12:00,
2013-03-10 16:22:00,40.0,39.0,29.72,NW,326,2.0,5.0,98,0.01,,,0.49,,2013-03-10 21:22:00,
2013-03-10 16:32:00,40.0,39.0,29.72,East,87,1.0,3.0,98,0.02,,,0.50,,2013-03-10 21:32:00,
2013-03-10 16:42:00,40.0,39.0,29.72,East,87,1.0,3.0,98,0.02,,,0.50,,2013-03-10 21:42:00,
2013-03-10 16:53:00,39.0,38.0,29.70,East,84,3.0,7.0,98,0.03,,,0.51,,2013-03-10 21:53:00,
2013-03-10 17:02:00,39.0,38.0,29.70,ENE,66,3.0,7.0,98,0.03,,,0.52,,2013-03-10 22:02:00,
2013-03-10 17:12:00,39.0,38.0,29.70,ENE,66,3.0,7.0,98,0.03,,,0.52,,2013-03-10 22:12:00,
2013-03-10 17:22:00,39.0,38.0,29.75,ENE,72,4.0,7.0,98,0.09,,,0.58,,2013-03-10 22:22:00,
2013-03-10 17:32:00,38.0,37.0,29.73,ENE,75,4.0,8.0,98,0.11,,,0.61,,2013-03-10 22:32:00,
2013-03-10 17:42:00,38.0,37.0,29.73,ENE,75,4.0,8.0,98,0.11,,,0.61,,2013-03-10 22:42:00,
2013-03-10 17:53:00,37.0,36.0,29.71,NNE,32,4.0,8.0,98,0.15,,,0.66,,2013-03-10 22:53:00,
2013-03-10 18:02:00,36.0,35.0,29.70,East,84,4.0,7.0,98,0.15,,,0.67,,2013-03-10 23:02:00,
2013-03-10 18:12:00,36.0,35.0,29.70,ENE,77,5.0,10.0,98,0.14,,,0.72,,2013-03-10 23:12:00,
2013-03-10 18:22:00,36.0,35.0,29.70,ENE,77,5.0,10.0,98,0.14,,,0.72,,2013-03-10 23:22:00,
2013-03-10 18:32:00,36.0,35.0,29.69,East,83,4.0,11.0,98,0.12,,,0.73,,2013-03-10 23:32:00,
2013-03-10 18:42:00,36.0,35.0,29.69,East,83,4.0,11.0,98,0.12,,,0.73,,2013-03-10 23:42:00,
2013-03-10 18:52:00,36.0,35.0,29.69,East,79,4.0,8.0,98,0.09,,,0.75,,2013-03-10 23:52:00,
2013-03-10 19:02:00,36.0,35.0,29.68,ENE,75,5.0,9.0,98,0.09,,,0.77,,2013-03-11 00:02:00,
2013-03-10 19:12:00,36.0,35.0,29.68,ENE,75,5.0,9.0,98,0.09,,,0.77,,2013-03-11 00:12:00,
2013-03-10 19:22:00,35.0,34.0,29.67,ENE,77,4.0,12.0,98,0.06,,,0.78,,2013-03-11 00:22:00,
2013-03-10 19:33:00,35.0,34.0,29.68,East,80,4.0,10.0,98,0.06,,,0.79,,2013-03-11 00:33:00,
2013-03-10 19:42:00,35.0,34.0,29.68,East,80,4.0,10.0,98,0.06,,,0.79,,2013-03-11 00:42:00,
2013-03-10 19:53:00,35.0,35.0,29.67,ENE,68,5.0,9.0,99,0.06,,,0.81,,2013-03-11 00:53:00,
2013-03-10 20:02:00,36.0,36.0,29.65,NE,41,8.0,14.0,99,0.04,,,0.81,,2013-03-11 01:02:00,
2013-03-10 20:12:00,36.0,36.0,29.65,NE,41,8.0,14.0,99,0.04,,,0.81,,2013-03-11 01:12:00,
2013-03-10 20:22:00,36.0,36.0,29.65,ENE,67,6.0,12.0,99,0.05,,,0.83,,2013-03-11 01:22:00,
2013-03-10 20:32:00,36.0,36.0,29.64,ENE,73,5.0,11.0,99,0.04,,,0.83,,2013-03-11 01:32:00,
2013-03-10 20:42:00,36.0,36.0,29.64,ENE,73,5.0,11.0,99,0.04,,,0.83,,2013-03-11 01:42:00,
2013-03-10 20:53:00,36.0,36.0,29.63,ENE,62,4.0,12.0,99,0.03,,,0.84,,2013-03-11 01:53:00,
2013-03-10 21:02:00,36.0,36.0,29.62,East,86,4.0,7.0,99,0.04,,,0.85,,2013-03-11 02:02:00,
2013-03-10 21:12:00,36.0,36.0,29.62,East,86,4.0,7.0,99,0.04,,,0.85,,2013-03-11 02:12:00,
2013-03-10 21:22:00,36.0,36.0,29.61,East,87,4.0,9.0,99,0.03,,,0.86,,2013-03-11 02:22:00,
2013-03-10 21:32:00,36.0,36.0,29.60,ENE,70,4.0,9.0,99,0.04,,,0.87,,2013-03-11 02:32:00,
2013-03-10 21:42:00,36.0,36.0,29.60,ENE,70,4.0,9.0,99,0.04,,,0.87,,2013-03-11 02:42:00,
2013-03-10 21:52:00,37.0,37.0,29.61,NNE,13,5.0,12.0,99,0.05,,,0.89,,2013-03-11 02:52:00,
2013-03-10 22:02:00,37.0,37.0,29.61,SE,124,1.0,6.0,99,0.04,,,0.89,,2013-03-11 03:02:00,
2013-03-10 22:12:00,37.0,37.0,29.61,SE,124,1.0,6.0,99,0.04,,,0.89,,2013-03-11 03:12:00,
2013-03-10 22:22:00,38.0,38.0,29.60,NNW,340,0.0,1.0,99,0.03,,,0.89,,2013-03-11 03:22:00,
2013-03-10 22:32:00,37.0,37.0,29.59,NNE,20,0.0,1.0,99,0.02,,,0.89,,2013-03-11 03:32:00,
2013-03-10 22:42:00,37.0,37.0,29.59,NNE,20,0.0,1.0,99,0.02,,,0.89,,2013-03-11 03:42:00,
2013-03-10 22:53:00,37.0,37.0,29.59,NW,319,0.0,1.0,99,0.00,,,0.89,,2013-03-11 03:53:00,
2013-03-10 23:02:00,37.0,37.0,29.59,NW,319,0.0,1.0,99,0.00,,,0.89,,2013-03-11 04:02:00,
2013-03-10 23:12:00,37.0,37.0,29.59,NW,319,0.0,1.0,99,0.00,,,0.89,,2013-03-11 04:12:00,
2013-03-10 23:22:00,37.0,37.0,29.60,NW,314,1.0,3.0,99,0.00,,,0.89,,2013-03-11 04:22:00,
2013-03-10 23:32:00,36.0,36.0,29.60,WNW,288,1.0,1.0,99,0.00,,,0.89,,2013-03-11 04:32:00,
2013-03-10 23:42:00,36.0,36.0,29.60,WNW,288,1.0,1.0,99,0.00,,,0.89,,2013-03-11 04:42:00,
2013-03-10 23:53:00,36.0,36.0,29.60,WSW,245,1.0,1.0,99,0.01,,,0.90,,2013-03-11 04:53:00,